sensor_id;sensor_type;location;lat;lon;timestamp;pressure;altitude;pressure_sealevel;temperature;humidity
46007;BME280;31738;50.188;8.524;2022-11-20T00:01:39;98429.47;;;3.65;91.58
46007;BME280;31738;50.188;8.524;2022-11-20T00:04:09;98427.06;;;3.63;91.50
46007;BME280;31738;50.188;8.524;2022-11-20T00:06:37;98428.06;;;3.62;91.67
46007;BME280;31738;50.188;8.524;2022-11-20T00:09:09;98415.88;;;3.61;92.23
46007;BME280;31738;50.188;8.524;2022-11-20T00:11:35;98421.66;;;3.58;92.13
46007;BME280;31738;50.188;8.524;2022-11-20T00:14:04;98424.88;;;3.60;92.18
46007;BME280;31738;50.188;8.524;2022-11-20T00:16:31;98421.16;;;3.61;91.60
46007;BME280;31738;50.188;8.524;2022-11-20T00:18:57;98420.94;;;3.63;92.08
46007;BME280;31738;50.188;8.524;2022-11-20T00:21:27;98419.09;;;3.63;92.14
46007;BME280;31738;50.188;8.524;2022-11-20T00:23:59;98420.13;;;3.62;91.83
46007;BME280;31738;50.188;8.524;2022-11-20T00:26:28;98427.06;;;3.63;92.37
46007;BME280;31738;50.188;8.524;2022-11-20T00:28:59;98431.88;;;3.66;92.00
46007;BME280;31738;50.188;8.524;2022-11-20T00:31:37;98421.28;;;3.66;92.26
46007;BME280;31738;50.188;8.524;2022-11-20T00:34:11;98405.84;;;3.63;91.84
46007;BME280;31738;50.188;8.524;2022-11-20T00:36:47;98401.56;;;3.62;92.49
46007;BME280;31738;50.188;8.524;2022-11-20T00:39:29;98403.09;;;3.58;92.30
46007;BME280;31738;50.188;8.524;2022-11-20T00:41:54;98388.78;;;3.59;92.43
46007;BME280;31738;50.188;8.524;2022-11-20T00:44:23;98389.94;;;3.63;92.15
46007;BME280;31738;50.188;8.524;2022-11-20T00:46:56;98387.81;;;3.65;92.15
46007;BME280;31738;50.188;8.524;2022-11-20T00:49:25;98378.84;;;3.66;92.23
46007;BME280;31738;50.188;8.524;2022-11-20T00:51:56;98377.22;;;3.65;92.29
46007;BME280;31738;50.188;8.524;2022-11-20T00:54:24;98384.47;;;3.70;91.85
46007;BME280;31738;50.188;8.524;2022-11-20T00:56:52;98392.19;;;3.71;92.15
46007;BME280;31738;50.188;8.524;2022-11-20T00:59:18;98393.81;;;3.72;92.36
46007;BME280;31738;50.188;8.524;2022-11-20T01:01:44;98390.34;;;3.72;91.95
46007;BME280;31738;50.188;8.524;2022-11-20T01:04:13;98397.47;;;3.71;92.44
46007;BME280;31738;50.188;8.524;2022-11-20T01:06:41;98393.22;;;3.70;92.35
46007;BME280;31738;50.188;8.524;2022-11-20T01:09:11;98393.47;;;3.69;92.26
46007;BME280;31738;50.188;8.524;2022-11-20T01:11:42;98389.75;;;3.70;92.63
46007;BME280;31738;50.188;8.524;2022-11-20T01:14:17;98392.66;;;3.68;92.42
46007;BME280;31738;50.188;8.524;2022-11-20T01:16:46;98381.28;;;3.68;92.59
46007;BME280;31738;50.188;8.524;2022-11-20T01:19:21;98390.72;;;3.64;92.09
46007;BME280;31738;50.188;8.524;2022-11-20T01:21:53;98393.53;;;3.57;91.87
46007;BME280;31738;50.188;8.524;2022-11-20T01:24:25;98401.16;;;3.53;92.43
46007;BME280;31738;50.188;8.524;2022-11-20T01:26:51;98385.47;;;3.52;92.46
46007;BME280;31738;50.188;8.524;2022-11-20T01:29:22;98391.81;;;3.51;92.79
46007;BME280;31738;50.188;8.524;2022-11-20T01:31:48;98387.31;;;3.51;92.94
46007;BME280;31738;50.188;8.524;2022-11-20T01:34:20;98384.44;;;3.53;92.92
46007;BME280;31738;50.188;8.524;2022-11-20T01:36:55;98386.06;;;3.54;92.87
46007;BME280;31738;50.188;8.524;2022-11-20T01:39:23;98386.59;;;3.56;93.10
46007;BME280;31738;50.188;8.524;2022-11-20T01:41:50;98379.22;;;3.58;93.22
46007;BME280;31738;50.188;8.524;2022-11-20T01:48:01;98379.38;;;3.51;93.18
46007;BME280;31738;50.188;8.524;2022-11-20T01:50:28;98374.97;;;3.57;93.15
46007;BME280;31738;50.188;8.524;2022-11-20T01:53:16;98362.28;;;3.59;92.96
46007;BME280;31738;50.188;8.524;2022-11-20T01:55:53;98365.97;;;3.58;92.51
46007;BME280;31738;50.188;8.524;2022-11-20T01:58:22;98361.25;;;3.60;93.14
46007;BME280;31738;50.188;8.524;2022-11-20T02:00:53;98354.88;;;3.61;93.44
46007;BME280;31738;50.188;8.524;2022-11-20T02:03:21;98370.56;;;3.63;92.56
46007;BME280;31738;50.188;8.524;2022-11-20T02:05:59;98369.50;;;3.64;93.09
46007;BME280;31738;50.188;8.524;2022-11-20T02:08:30;98361.00;;;3.62;92.77
46007;BME280;31738;50.188;8.524;2022-11-20T02:10:56;98360.19;;;3.61;93.24
46007;BME280;31738;50.188;8.524;2022-11-20T02:13:22;98359.06;;;3.57;92.86
46007;BME280;31738;50.188;8.524;2022-11-20T02:16:27;98358.53;;;3.43;92.64
46007;BME280;31738;50.188;8.524;2022-11-20T02:19:09;98356.22;;;3.47;93.17
46007;BME280;31738;50.188;8.524;2022-11-20T02:22:05;98359.00;;;3.40;93.42
46007;BME280;31738;50.188;8.524;2022-11-20T02:24:43;98352.69;;;3.41;93.73
46007;BME280;31738;50.188;8.524;2022-11-20T02:27:20;98354.50;;;3.41;93.29
46007;BME280;31738;50.188;8.524;2022-11-20T02:30:00;98354.50;;;3.41;93.85
46007;BME280;31738;50.188;8.524;2022-11-20T02:32:36;98343.91;;;3.41;93.91
46007;BME280;31738;50.188;8.524;2022-11-20T02:38:01;98341.84;;;3.43;93.54
46007;BME280;31738;50.188;8.524;2022-11-20T02:40:41;98342.63;;;3.43;93.71
46007;BME280;31738;50.188;8.524;2022-11-20T02:43:33;98339.19;;;3.43;93.50
46007;BME280;31738;50.188;8.524;2022-11-20T02:46:01;98345.03;;;3.45;93.68
46007;BME280;31738;50.188;8.524;2022-11-20T02:48:26;98346.66;;;3.46;93.71
46007;BME280;31738;50.188;8.524;2022-11-20T02:50:55;98334.44;;;3.45;93.79
46007;BME280;31738;50.188;8.524;2022-11-20T02:53:49;98340.69;;;3.39;94.10
46007;BME280;31738;50.188;8.524;2022-11-20T02:56:30;98348.31;;;3.35;94.16
46007;BME280;31738;50.188;8.524;2022-11-20T02:59:06;98346.94;;;3.33;93.79
46007;BME280;31738;50.188;8.524;2022-11-20T03:02:11;98337.97;;;3.34;93.87
46007;BME280;31738;50.188;8.524;2022-11-20T03:04:42;98331.03;;;3.33;93.91
46007;BME280;31738;50.188;8.524;2022-11-20T03:07:36;98326.22;;;3.30;93.68
46007;BME280;31738;50.188;8.524;2022-11-20T03:10:21;98335.56;;;3.21;93.76
46007;BME280;31738;50.188;8.524;2022-11-20T03:13:17;98331.22;;;3.15;93.94
46007;BME280;31738;50.188;8.524;2022-11-20T03:16:50;98333.28;;;3.13;93.52
46007;BME280;31738;50.188;8.524;2022-11-20T03:19:19;98341.13;;;3.19;94.45
46007;BME280;31738;50.188;8.524;2022-11-20T03:22:19;98332.94;;;3.21;93.50
46007;BME280;31738;50.188;8.524;2022-11-20T03:24:48;98336.88;;;3.07;94.79
46007;BME280;31738;50.188;8.524;2022-11-20T03:27:14;98336.75;;;3.13;94.50
46007;BME280;31738;50.188;8.524;2022-11-20T03:30:35;98331.81;;;3.17;94.04
46007;BME280;31738;50.188;8.524;2022-11-20T03:33:48;98327.63;;;3.21;93.58
46007;BME280;31738;50.188;8.524;2022-11-20T03:36:23;98325.09;;;3.26;94.03
46007;BME280;31738;50.188;8.524;2022-11-20T03:38:59;98336.25;;;3.28;94.32
46007;BME280;31738;50.188;8.524;2022-11-20T03:41:39;98329.91;;;3.29;93.79
46007;BME280;31738;50.188;8.524;2022-11-20T03:44:07;98333.69;;;3.33;94.49
46007;BME280;31738;50.188;8.524;2022-11-20T03:46:53;98330.50;;;3.31;94.29
46007;BME280;31738;50.188;8.524;2022-11-20T03:49:28;98325.72;;;3.33;94.16
46007;BME280;31738;50.188;8.524;2022-11-20T03:51:54;98325.72;;;3.33;93.66
46007;BME280;31738;50.188;8.524;2022-11-20T03:55:04;98315.59;;;3.30;93.91
46007;BME280;31738;50.188;8.524;2022-11-20T03:57:47;98298.94;;;3.29;93.82
46007;BME280;31738;50.188;8.524;2022-11-20T04:00:22;98306.41;;;3.32;93.86
46007;BME280;31738;50.188;8.524;2022-11-20T04:03:00;98313.53;;;3.32;93.99
46007;BME280;31738;50.188;8.524;2022-11-20T04:06:26;98312.72;;;3.31;93.84
46007;BME280;31738;50.188;8.524;2022-11-20T04:09:05;98310.31;;;3.30;93.97
46007;BME280;31738;50.188;8.524;2022-11-20T04:11:37;98320.19;;;3.34;94.56
46007;BME280;31738;50.188;8.524;2022-11-20T04:14:38;98315.94;;;3.33;94.51
46007;BME280;31738;50.188;8.524;2022-11-20T04:17:20;98307.75;;;3.35;94.18
46007;BME280;31738;50.188;8.524;2022-11-20T04:19:45;98298.75;;;3.36;94.40
46007;BME280;31738;50.188;8.524;2022-11-20T04:22:11;98309.13;;;3.37;94.23
46007;BME280;31738;50.188;8.524;2022-11-20T04:24:43;98303.28;;;3.35;94.08
46007;BME280;31738;50.188;8.524;2022-11-20T04:27:09;98296.09;;;3.36;94.51
46007;BME280;31738;50.188;8.524;2022-11-20T04:29:34;98296.69;;;3.38;94.43
46007;BME280;31738;50.188;8.524;2022-11-20T04:32:00;98292.44;;;3.37;93.97
46007;BME280;31738;50.188;8.524;2022-11-20T04:34:33;98300.94;;;3.39;94.23
46007;BME280;31738;50.188;8.524;2022-11-20T04:36:59;98300.69;;;3.40;94.27
46007;BME280;31738;50.188;8.524;2022-11-20T04:39:25;98300.22;;;3.43;93.80
46007;BME280;31738;50.188;8.524;2022-11-20T04:41:50;98295.38;;;3.40;94.08
46007;BME280;31738;50.188;8.524;2022-11-20T04:44:41;98303.28;;;3.35;94.17
46007;BME280;31738;50.188;8.524;2022-11-20T04:47:10;98293.47;;;3.36;94.36
46007;BME280;31738;50.188;8.524;2022-11-20T04:49:44;98292.97;;;3.39;94.07
46007;BME280;31738;50.188;8.524;2022-11-20T04:52:15;98288.97;;;3.36;94.16
46007;BME280;31738;50.188;8.524;2022-11-20T04:54:50;98284.72;;;3.35;94.37
46007;BME280;31738;50.188;8.524;2022-11-20T04:57:59;98284.38;;;3.32;94.70
46007;BME280;31738;50.188;8.524;2022-11-20T05:04:18;98285.44;;;3.31;94.97
46007;BME280;31738;50.188;8.524;2022-11-20T05:06:47;98279.09;;;3.32;94.42
46007;BME280;31738;50.188;8.524;2022-11-20T05:10:03;98288.00;;;3.26;94.78
46007;BME280;31738;50.188;8.524;2022-11-20T05:12:29;98286.47;;;3.30;94.90
46007;BME280;31738;50.188;8.524;2022-11-20T05:14:55;98279.91;;;3.32;95.00
46007;BME280;31738;50.188;8.524;2022-11-20T05:17:23;98286.56;;;3.35;94.62
46007;BME280;31738;50.188;8.524;2022-11-20T05:19:53;98283.91;;;3.35;94.23
46007;BME280;31738;50.188;8.524;2022-11-20T05:22:22;98280.69;;;3.33;94.66
46007;BME280;31738;50.188;8.524;2022-11-20T05:24:48;98285.75;;;3.34;94.56
46007;BME280;31738;50.188;8.524;2022-11-20T05:27:18;98295.09;;;3.37;94.62
46007;BME280;31738;50.188;8.524;2022-11-20T05:29:50;98287.69;;;3.39;94.66
46007;BME280;31738;50.188;8.524;2022-11-20T05:32:36;98285.44;;;3.31;94.39
46007;BME280;31738;50.188;8.524;2022-11-20T05:35:02;98288.63;;;3.33;94.34
46007;BME280;31738;50.188;8.524;2022-11-20T05:37:31;98287.38;;;3.35;94.50
46007;BME280;31738;50.188;8.524;2022-11-20T05:40:00;98281.25;;;3.35;94.79
46007;BME280;31738;50.188;8.524;2022-11-20T05:42:34;98289.44;;;3.33;94.50
46007;BME280;31738;50.188;8.524;2022-11-20T05:45:04;98291.84;;;3.35;94.75
46007;BME280;31738;50.188;8.524;2022-11-20T05:47:37;98296.34;;;3.34;94.85
46007;BME280;31738;50.188;8.524;2022-11-20T05:50:05;98281.72;;;3.32;94.84
46007;BME280;31738;50.188;8.524;2022-11-20T05:52:31;98292.81;;;3.29;94.58
46007;BME280;31738;50.188;8.524;2022-11-20T05:54:57;98287.03;;;3.32;94.21
46007;BME280;31738;50.188;8.524;2022-11-20T05:57:23;98272.19;;;3.31;94.38
46007;BME280;31738;50.188;8.524;2022-11-20T05:59:49;98277.28;;;3.21;94.28
46007;BME280;31738;50.188;8.524;2022-11-20T06:02:20;98274.16;;;3.24;94.35
46007;BME280;31738;50.188;8.524;2022-11-20T06:04:52;98280.28;;;3.24;94.44
46007;BME280;31738;50.188;8.524;2022-11-20T06:07:18;98280.63;;;3.28;94.66
46007;BME280;31738;50.188;8.524;2022-11-20T06:09:44;98274.03;;;3.30;94.52
46007;BME280;31738;50.188;8.524;2022-11-20T06:12:39;98278.19;;;3.26;94.55
46007;BME280;31738;50.188;8.524;2022-11-20T06:15:23;98270.00;;;3.28;94.92
46007;BME280;31738;50.188;8.524;2022-11-20T06:17:56;98275.31;;;3.28;94.54
46007;BME280;31738;50.188;8.524;2022-11-20T06:20:34;98280.13;;;3.31;95.07
46007;BME280;31738;50.188;8.524;2022-11-20T06:23:18;98281.97;;;3.30;94.88
46007;BME280;31738;50.188;8.524;2022-11-20T06:25:53;98278.03;;;3.33;94.71
46007;BME280;31738;50.188;8.524;2022-11-20T06:28:35;98277.25;;;3.32;94.33
46007;BME280;31738;50.188;8.524;2022-11-20T06:31:46;98259.41;;;3.28;95.05
46007;BME280;31738;50.188;8.524;2022-11-20T06:34:11;98259.72;;;3.31;94.89
46007;BME280;31738;50.188;8.524;2022-11-20T06:44:43;98280.50;;;3.23;95.17
46007;BME280;31738;50.188;8.524;2022-11-20T06:47:16;98275.78;;;3.25;95.20
46007;BME280;31738;50.188;8.524;2022-11-20T06:49:42;98271.03;;;3.27;94.77
46007;BME280;31738;50.188;8.524;2022-11-20T06:52:07;98273.22;;;3.30;94.71
46007;BME280;31738;50.188;8.524;2022-11-20T06:54:33;98269.06;;;3.34;95.38
46007;BME280;31738;50.188;8.524;2022-11-20T06:56:58;98267.44;;;3.33;94.86
46007;BME280;31738;50.188;8.524;2022-11-20T06:59:24;98271.13;;;3.32;95.02
46007;BME280;31738;50.188;8.524;2022-11-20T07:01:49;98268.00;;;3.35;94.86
46007;BME280;31738;50.188;8.524;2022-11-20T07:04:14;98271.72;;;3.34;95.03
46007;BME280;31738;50.188;8.524;2022-11-20T07:06:40;98269.38;;;3.37;95.10
46007;BME280;31738;50.188;8.524;2022-11-20T07:09:05;98269.69;;;3.41;95.33
46007;BME280;31738;50.188;8.524;2022-11-20T07:11:31;98272.13;;;3.42;95.07
46007;BME280;31738;50.188;8.524;2022-11-20T07:13:56;98259.56;;;3.38;95.21
46007;BME280;31738;50.188;8.524;2022-11-20T07:16:22;98276.06;;;3.40;95.03
46007;BME280;31738;50.188;8.524;2022-11-20T07:18:48;98272.94;;;3.43;95.20
46007;BME280;31738;50.188;8.524;2022-11-20T07:21:13;98281.91;;;3.42;95.13
46007;BME280;31738;50.188;8.524;2022-11-20T07:23:39;98281.34;;;3.40;95.03
46007;BME280;31738;50.188;8.524;2022-11-20T07:26:06;98281.91;;;3.42;94.69
46007;BME280;31738;50.188;8.524;2022-11-20T07:28:32;98286.72;;;3.45;95.16
46007;BME280;31738;50.188;8.524;2022-11-20T07:30:57;98290.75;;;3.47;94.59
46007;BME280;31738;50.188;8.524;2022-11-20T07:33:23;98285.47;;;3.47;94.54
46007;BME280;31738;50.188;8.524;2022-11-20T07:35:49;98287.06;;;3.48;95.54
46007;BME280;31738;50.188;8.524;2022-11-20T07:38:14;98281.19;;;3.46;95.33
46007;BME280;31738;50.188;8.524;2022-11-20T07:40:40;98283.34;;;3.49;95.00
46007;BME280;31738;50.188;8.524;2022-11-20T07:43:05;98282.09;;;3.52;94.97
46007;BME280;31738;50.188;8.524;2022-11-20T07:45:31;98282.66;;;3.54;94.94
46007;BME280;31738;50.188;8.524;2022-11-20T07:47:56;98291.75;;;3.58;95.07
46007;BME280;31738;50.188;8.524;2022-11-20T07:50:22;98283.53;;;3.60;95.21
46007;BME280;31738;50.188;8.524;2022-11-20T07:52:47;98285.72;;;3.63;94.88
46007;BME280;31738;50.188;8.524;2022-11-20T07:55:13;98289.19;;;3.63;95.40
46007;BME280;31738;50.188;8.524;2022-11-20T07:57:39;98291.34;;;3.66;95.65
46007;BME280;31738;50.188;8.524;2022-11-20T08:00:06;98287.41;;;3.69;95.07
46007;BME280;31738;50.188;8.524;2022-11-20T08:02:41;98296.72;;;3.71;95.31
46007;BME280;31738;50.188;8.524;2022-11-20T08:05:08;98298.09;;;3.74;94.96
46007;BME280;31738;50.188;8.524;2022-11-20T08:07:38;98296.72;;;3.71;95.41
46007;BME280;31738;50.188;8.524;2022-11-20T08:10:05;98299.59;;;3.70;95.53
46007;BME280;31738;50.188;8.524;2022-11-20T08:12:30;98303.16;;;3.75;95.49
46007;BME280;31738;50.188;8.524;2022-11-20T08:15:15;98307.31;;;3.71;95.09
46007;BME280;31738;50.188;8.524;2022-11-20T08:17:40;98300.75;;;3.74;95.32
46007;BME280;31738;50.188;8.524;2022-11-20T08:20:06;98301.53;;;3.74;95.13
46007;BME280;31738;50.188;8.524;2022-11-20T08:22:32;98300.28;;;3.77;94.90
46007;BME280;31738;50.188;8.524;2022-11-20T08:24:57;98314.13;;;3.79;95.04
46007;BME280;31738;50.188;8.524;2022-11-20T08:27:23;98303.50;;;3.79;95.56
46007;BME280;31738;50.188;8.524;2022-11-20T08:29:49;98308.63;;;3.85;95.83
46007;BME280;31738;50.188;8.524;2022-11-20T08:32:26;98312.97;;;3.91;95.78
46007;BME280;31738;50.188;8.524;2022-11-20T08:34:52;98315.13;;;3.94;95.29
46007;BME280;31738;50.188;8.524;2022-11-20T08:37:24;98319.97;;;3.97;95.58
46007;BME280;31738;50.188;8.524;2022-11-20T08:39:51;98319.97;;;3.97;95.14
46007;BME280;31738;50.188;8.524;2022-11-20T08:42:25;98312.00;;;3.97;95.55
46007;BME280;31738;50.188;8.524;2022-11-20T08:45:00;98319.41;;;3.95;95.13
46007;BME280;31738;50.188;8.524;2022-11-20T08:47:38;98316.81;;;4.00;95.21
46007;BME280;31738;50.188;8.524;2022-11-20T08:50:07;98316.91;;;4.05;95.44
46007;BME280;31738;50.188;8.524;2022-11-20T08:52:43;98314.81;;;4.07;95.53
46007;BME280;31738;50.188;8.524;2022-11-20T08:55:09;98310.09;;;4.09;95.84
46007;BME280;31738;50.188;8.524;2022-11-20T08:57:38;98310.09;;;4.09;95.94
46007;BME280;31738;50.188;8.524;2022-11-20T09:00:15;98315.69;;;4.13;95.52
46007;BME280;31738;50.188;8.524;2022-11-20T09:02:49;98321.50;;;4.10;95.79
46007;BME280;31738;50.188;8.524;2022-11-20T09:05:15;98305.91;;;4.13;95.41
46007;BME280;31738;50.188;8.524;2022-11-20T09:08:03;98327.47;;;4.17;95.42
46007;BME280;31738;50.188;8.524;2022-11-20T09:10:33;98321.72;;;4.25;95.23
46007;BME280;31738;50.188;8.524;2022-11-20T09:13:00;98328.25;;;4.34;95.74
46007;BME280;31738;50.188;8.524;2022-11-20T09:15:29;98317.94;;;4.37;95.60
46007;BME280;31738;50.188;8.524;2022-11-20T09:18:00;98323.88;;;4.44;95.38
46007;BME280;31738;50.188;8.524;2022-11-20T09:20:34;98322.91;;;4.50;95.06
46007;BME280;31738;50.188;8.524;2022-11-20T09:23:00;98322.91;;;4.50;95.20
46007;BME280;31738;50.188;8.524;2022-11-20T09:25:26;98321.84;;;4.51;95.32
46007;BME280;31738;50.188;8.524;2022-11-20T09:27:58;98312.03;;;4.52;95.33
46007;BME280;31738;50.188;8.524;2022-11-20T09:30:27;98319.03;;;4.58;95.92
46007;BME280;31738;50.188;8.524;2022-11-20T09:32:54;98324.66;;;4.61;95.88
46007;BME280;31738;50.188;8.524;2022-11-20T09:35:26;98322.53;;;4.63;95.49
46007;BME280;31738;50.188;8.524;2022-11-20T09:37:54;98322.63;;;4.68;95.60
46007;BME280;31738;50.188;8.524;2022-11-20T09:40:28;98321.63;;;4.74;95.68
46007;BME280;31738;50.188;8.524;2022-11-20T09:43:20;98314.53;;;4.80;95.78
46007;BME280;31738;50.188;8.524;2022-11-20T09:51:32;98301.19;;;4.96;96.05
46007;BME280;31738;50.188;8.524;2022-11-20T09:56:45;98287.84;;;4.91;96.63
46007;BME280;31738;50.188;8.524;2022-11-20T10:05:15;98293.97;;;5.13;96.16
46007;BME280;31738;50.188;8.524;2022-11-20T10:07:55;98295.13;;;5.22;96.16
46007;BME280;31738;50.188;8.524;2022-11-20T10:13:06;98287.19;;;5.27;96.63
46007;BME280;31738;50.188;8.524;2022-11-20T10:16:08;98279.75;;;5.29;96.29
46007;BME280;31738;50.188;8.524;2022-11-20T10:21:29;98271.94;;;5.45;96.50
46007;BME280;31738;50.188;8.524;2022-11-20T10:26:48;98271.28;;;5.59;96.59
46007;BME280;31738;50.188;8.524;2022-11-20T10:29:21;98274.53;;;5.66;96.54
46007;BME280;31738;50.188;8.524;2022-11-20T10:31:55;98272.75;;;5.72;96.61
46007;BME280;31738;50.188;8.524;2022-11-20T10:34:47;98265.84;;;5.76;96.52
46007;BME280;31738;50.188;8.524;2022-11-20T10:37:24;98267.50;;;5.82;96.59
46007;BME280;31738;50.188;8.524;2022-11-20T10:42:56;98258.66;;;5.76;96.55
46007;BME280;31738;50.188;8.524;2022-11-20T10:47:54;98258.47;;;5.83;96.82
46007;BME280;31738;50.188;8.524;2022-11-20T10:50:22;98256.34;;;5.85;96.34
46007;BME280;31738;50.188;8.524;2022-11-20T10:53:03;98247.72;;;5.73;96.57
46007;BME280;31738;50.188;8.524;2022-11-20T10:55:45;98248.75;;;5.67;96.61
46007;BME280;31738;50.188;8.524;2022-11-20T11:01:18;98257.56;;;5.72;96.72
46007;BME280;31738;50.188;8.524;2022-11-20T11:03:44;98266.91;;;5.75;96.71
46007;BME280;31738;50.188;8.524;2022-11-20T11:09:01;98253.59;;;5.75;96.64
46007;BME280;31738;50.188;8.524;2022-11-20T11:11:31;98258.94;;;5.80;96.75
46007;BME280;31738;50.188;8.524;2022-11-20T11:14:14;98256.28;;;5.80;96.58
46007;BME280;31738;50.188;8.524;2022-11-20T11:16:55;98255.25;;;5.81;96.62
46007;BME280;31738;50.188;8.524;2022-11-20T11:19:21;98252.34;;;5.82;96.88
46007;BME280;31738;50.188;8.524;2022-11-20T11:21:49;98251.34;;;5.88;96.80
46007;BME280;31738;50.188;8.524;2022-11-20T11:24:26;98250.56;;;5.93;96.76
46007;BME280;31738;50.188;8.524;2022-11-20T11:27:03;98240.75;;;5.98;96.71
46007;BME280;31738;50.188;8.524;2022-11-20T11:29:35;98231.22;;;6.02;96.60
46007;BME280;31738;50.188;8.524;2022-11-20T11:32:14;98237.59;;;6.01;96.00
46007;BME280;31738;50.188;8.524;2022-11-20T11:34:40;98234.13;;;6.01;96.64
46007;BME280;31738;50.188;8.524;2022-11-20T11:37:15;98232.81;;;6.03;96.26
46007;BME280;31738;50.188;8.524;2022-11-20T11:39:43;98228.31;;;6.04;96.35
46007;BME280;31738;50.188;8.524;2022-11-20T11:42:13;98222.16;;;6.03;96.68
46007;BME280;31738;50.188;8.524;2022-11-20T11:44:44;98221.94;;;6.10;96.77
46007;BME280;31738;50.188;8.524;2022-11-20T11:50:25;98218.16;;;6.01;96.07
46007;BME280;31738;50.188;8.524;2022-11-20T11:53:09;98223.50;;;6.01;96.31
46007;BME280;31738;50.188;8.524;2022-11-20T11:55:57;98211.47;;;5.98;96.47
46007;BME280;31738;50.188;8.524;2022-11-20T11:58:47;98210.19;;;6.06;96.50
46007;BME280;31738;50.188;8.524;2022-11-20T12:01:33;98204.66;;;6.12;96.42
46007;BME280;31738;50.188;8.524;2022-11-20T12:06:47;98196.47;;;6.24;96.69
46007;BME280;31738;50.188;8.524;2022-11-20T12:09:18;98187.97;;;6.32;96.60
46007;BME280;31738;50.188;8.524;2022-11-20T12:11:51;98186.63;;;6.29;96.68
46007;BME280;31738;50.188;8.524;2022-11-20T12:14:46;98183.16;;;6.29;96.29
46007;BME280;31738;50.188;8.524;2022-11-20T12:17:13;98178.94;;;6.33;96.52
46007;BME280;31738;50.188;8.524;2022-11-20T12:19:40;98188.25;;;6.35;96.53
46007;BME280;31738;50.188;8.524;2022-11-20T12:25:29;98195.41;;;6.25;96.29
46007;BME280;31738;50.188;8.524;2022-11-20T12:28:00;98202.81;;;6.18;96.66
46007;BME280;31738;50.188;8.524;2022-11-20T12:30:33;98191.63;;;6.21;96.32
46007;BME280;31738;50.188;8.524;2022-11-20T12:35:52;98198.00;;;6.15;96.35
46007;BME280;31738;50.188;8.524;2022-11-20T12:50:42;98192.63;;;6.05;96.61
46007;BME280;31738;50.188;8.524;2022-11-20T13:05:55;98184.59;;;5.95;97.22
46007;BME280;31738;50.188;8.524;2022-11-20T13:07:56;98176.63;;;5.95;97.09
46007;BME280;31738;50.188;8.524;2022-11-20T13:10:38;98173.41;;;5.93;96.66
46007;BME280;31738;50.188;8.524;2022-11-20T13:13:22;98181.94;;;5.95;96.77
46007;BME280;31738;50.188;8.524;2022-11-20T13:16:08;98169.41;;;5.95;96.81
46007;BME280;31738;50.188;8.524;2022-11-20T13:18:41;98161.72;;;5.99;96.96
46007;BME280;31738;50.188;8.524;2022-11-20T13:21:20;98157.22;;;5.99;96.84
46007;BME280;31738;50.188;8.524;2022-11-20T13:23:47;98152.16;;;6.03;96.54
46007;BME280;31738;50.188;8.524;2022-11-20T13:26:19;98155.63;;;6.03;96.58
46007;BME280;31738;50.188;8.524;2022-11-20T13:29:09;98149.78;;;6.06;96.98
46007;BME280;31738;50.188;8.524;2022-11-20T13:31:42;98148.44;;;6.09;96.61
46007;BME280;31738;50.188;8.524;2022-11-20T13:34:13;98147.41;;;6.10;96.99
46007;BME280;31738;50.188;8.524;2022-11-20T13:36:51;98147.41;;;6.10;96.72
46007;BME280;31738;50.188;8.524;2022-11-20T13:39:37;98139.44;;;6.10;96.64
46007;BME280;31738;50.188;8.524;2022-11-20T13:45:00;98139.97;;;6.17;97.26
46007;BME280;31738;50.188;8.524;2022-11-20T13:47:29;98145.28;;;6.12;96.87
46007;BME280;31738;50.188;8.524;2022-11-20T13:49:58;98141.56;;;6.13;96.74
46007;BME280;31738;50.188;8.524;2022-11-20T13:55:36;98145.53;;;6.05;96.72
46007;BME280;31738;50.188;8.524;2022-11-20T14:01:10;98141.50;;;5.98;96.88
46007;BME280;31738;50.188;8.524;2022-11-20T14:03:43;98133.00;;;6.01;96.85
46007;BME280;31738;50.188;8.524;2022-11-20T14:06:30;98136.19;;;6.03;96.88
46007;BME280;31738;50.188;8.524;2022-11-20T14:08:57;98130.34;;;6.06;97.09
46007;BME280;31738;50.188;8.524;2022-11-20T14:11:31;98131.16;;;6.06;96.82
46007;BME280;31738;50.188;8.524;2022-11-20T14:14:01;98126.63;;;6.07;96.69
46007;BME280;31738;50.188;8.524;2022-11-20T14:16:33;98123.97;;;6.07;96.80
46007;BME280;31738;50.188;8.524;2022-11-20T14:19:25;98120.22;;;6.03;96.64
46007;BME280;31738;50.188;8.524;2022-11-20T14:21:53;98123.94;;;6.02;96.79
46007;BME280;31738;50.188;8.524;2022-11-20T14:24:22;98120.22;;;6.03;96.83
46007;BME280;31738;50.188;8.524;2022-11-20T14:26:49;98117.03;;;6.06;96.83
46007;BME280;31738;50.188;8.524;2022-11-20T14:29:19;98111.72;;;6.06;97.01
46007;BME280;31738;50.188;8.524;2022-11-20T14:31:46;98103.19;;;6.09;96.55
46007;BME280;31738;50.188;8.524;2022-11-20T14:34:17;98094.69;;;6.07;96.83
46007;BME280;31738;50.188;8.524;2022-11-20T14:36:44;98106.94;;;6.08;96.55
46007;BME280;31738;50.188;8.524;2022-11-20T14:39:26;98099.72;;;6.03;96.91
46007;BME280;31738;50.188;8.524;2022-11-20T14:41:54;98096.81;;;6.05;96.86
46007;BME280;31738;50.188;8.524;2022-11-20T14:44:24;98103.47;;;6.07;96.53
46007;BME280;31738;50.188;8.524;2022-11-20T14:46:51;98101.59;;;6.08;96.83
46007;BME280;31738;50.188;8.524;2022-11-20T14:49:18;98085.63;;;6.08;96.67
46007;BME280;31738;50.188;8.524;2022-11-20T14:51:44;98082.44;;;6.06;96.67
46007;BME280;31738;50.188;8.524;2022-11-20T14:54:14;98073.41;;;6.07;96.47
46007;BME280;31738;50.188;8.524;2022-11-20T14:56:40;98071.50;;;6.07;96.88
46007;BME280;31738;50.188;8.524;2022-11-20T14:59:07;98069.16;;;6.11;96.63
46007;BME280;31738;50.188;8.524;2022-11-20T15:01:34;98060.09;;;6.12;96.63
46007;BME280;31738;50.188;8.524;2022-11-20T15:04:05;98071.03;;;6.15;96.62
46007;BME280;31738;50.188;8.524;2022-11-20T15:06:31;98073.41;;;6.17;96.86
46007;BME280;31738;50.188;8.524;2022-11-20T15:08:57;98064.38;;;6.18;96.80
46007;BME280;31738;50.188;8.524;2022-11-20T15:11:32;98061.44;;;6.19;97.06
46007;BME280;31738;50.188;8.524;2022-11-20T15:14:03;98065.47;;;6.22;96.52
46007;BME280;31738;50.188;8.524;2022-11-20T15:16:30;98062.25;;;6.20;96.71
46007;BME280;31738;50.188;8.524;2022-11-20T15:18:56;98066.28;;;6.22;97.10
46007;BME280;31738;50.188;8.524;2022-11-20T15:21:22;98062.53;;;6.23;96.68